METAR Data
IDs: Format: Raw Decoded Include TAF

Data at: 0203 UTC 20 Jan 2022

METAR for:K20V (Kremmling/McElroy Fl, CO, US)
Text:K20V 200155Z AUTO 00000KT 10SM SCT060 M13/M16 A3021 RMK AO2
Temperature:-13.0°C ( 9°F)
Dewpoint:-16.0°C ( 3°F) [RH = 78%]
Pressure (altimeter):30.21 inches Hg (1023.1 mb)
Winds:calm
Visibility:10 or more sm (16+ km)
Ceiling:at least 12,000 feet AGL
Clouds: scattered clouds at 6000 feet AGL
QC Flag:automated observation with no human augmentation